X  Fechar Metar - Info de Aeroporto     LPMT Montijo Air Base
Temperatura
12°C Temperatura
11°C Ptº Orvalho
94% Humidade



Vento
3 KM/H
2 MPH
1 M/S
2 NÓS



130°
SE
Condições Atuais

Parcialmente Nublado Parcialmente Nublado
Pressão 1014.92 (hPa) - 29.97 (inHg)
Visibilidade 6.2 (milha) - 10 (km)
Aeroporto
Código-Aeroporto LPMT

Localização: Montijo Air Base
Distância: 6 (km)

Metar:
LPMT 062000Z 13002KT 9999 FEW015 12/11 Q1015

Hora: 2022-12-06 20:00 WET